Main page
Satellite images Climate Cyclones Lightning AirportsFAQ Languages Contact Newsletter About
Weather : Europe Africa North America South America Asia Australia-Oceania Others

bangkok-th, Bangkok, Don Mueang International Airport

48456

latitude: , longitude: Thailand, elevation: 13-54-45N m


METAR: VTBD 212000Z 00000KT 9999 FEW030 28/25 Q1011 NOSIG